Time;durP1;ratioP1;P1;durP2;ratioP2;P2;SDS_P1;SDS_P2;PMS_P1;PMS_P2;Temp;Humidity;BMP_temperature;BMP_pressure;BME280_temperature;BME280_humidity;BME280_pressure;Samples;Min_cycle;Max_cycle;Signal;HPM_P1;HPM_P2
2021/11/13 00:01:56;;;;;;;26.30;10.73;;;9.50;99.90;;;;;;6241925;22;20446;-62
2021/11/13 00:04:22;;;;;;;23.58;11.05;;;9.40;99.90;;;;;;6241528;22;20008;-63
2021/11/13 00:06:47;;;;;;;25.33;11.68;;;9.50;99.90;;;;;;6242404;22;20019;-62
2021/11/13 00:09:14;;;;;;;22.52;11.27;;;9.40;99.90;;;;;;6240634;22;20087;-63
2021/11/13 00:11:41;;;;;;;25.17;10.77;;;9.40;99.90;;;;;;6242005;22;20351;-62
2021/11/13 00:14:12;;;;;;;27.67;12.23;;;9.40;99.90;;;;;;6239863;22;20016;-61
2021/11/13 00:16:38;;;;;;;26.45;12.05;;;9.50;99.90;;;;;;6242225;22;20087;-64
2021/11/13 00:19:03;;;;;;;26.08;12.18;;;9.40;99.90;;;;;;6239529;22;20129;-63
2021/11/13 00:21:29;;;;;;;29.45;12.05;;;9.50;99.90;;;;;;6241280;22;20084;-62
2021/11/13 00:23:55;;;;;;;28.80;12.18;;;9.50;99.90;;;;;;6241291;22;20331;-64
2021/11/13 00:26:22;;;;;;;28.25;11.77;;;9.50;99.90;;;;;;6241644;22;20023;-63
2021/11/13 00:28:47;;;;;;;28.00;11.30;;;9.40;99.90;;;;;;6241881;22;20588;-62
2021/11/13 00:31:13;;;;;;;22.17;11.35;;;9.50;99.90;;;;;;6240884;22;20058;-62
2021/11/13 00:33:38;;;;;;;28.23;10.48;;;9.50;99.90;;;;;;6241994;22;20390;-63
2021/11/13 00:36:04;;;;;;;27.70;10.40;;;9.50;99.90;;;;;;6241842;22;20015;-62
2021/11/13 00:38:30;;;;;;;23.67;9.75;;;9.50;99.90;;;;;;6241552;22;20051;-62
2021/11/13 00:40:55;;;;;;;23.92;10.52;;;9.50;99.90;;;;;;6241331;22;20035;-64
2021/11/13 00:43:21;;;;;;;24.65;10.95;;;9.50;99.90;;;;;;6241650;22;20011;-62
2021/11/13 00:45:47;;;;;;;27.65;10.10;;;9.50;99.90;;;;;;6241726;22;20012;-62
2021/11/13 00:48:13;;;;;;;21.90;9.60;;;9.50;99.90;;;;;;6240998;22;20012;-62
2021/11/13 00:50:40;;;;;;;27.85;11.63;;;9.50;99.90;;;;;;6239981;22;20008;-63
2021/11/13 00:53:06;;;;;;;22.98;9.65;;;9.50;99.90;;;;;;6241008;22;20054;-63
2021/11/13 00:55:32;;;;;;;24.00;9.43;;;9.50;99.90;;;;;;6241270;22;20099;-62
2021/11/13 00:57:57;;;;;;;31.15;10.60;;;9.60;99.90;;;;;;6241260;22;20039;-63
2021/11/13 01:00:24;;;;;;;28.73;11.45;;;9.60;99.90;;;;;;6241063;22;20164;-63
2021/11/13 01:02:50;;;;;;;23.92;10.05;;;9.60;99.90;;;;;;6241699;22;20446;-63
2021/11/13 01:05:17;;;;;;;27.17;9.77;;;9.60;99.90;;;;;;6240553;22;20012;-63
2021/11/13 01:07:43;;;;;;;27.35;10.25;;;9.60;99.90;;;;;;6241751;22;20482;-63
2021/11/13 01:10:10;;;;;;;30.23;10.88;;;9.60;99.90;;;;;;6240737;22;20679;-63
2021/11/13 01:12:37;;;;;;;27.08;10.82;;;9.70;99.90;;;;;;6241707;22;20028;-63
2021/11/13 01:15:05;;;;;;;23.67;10.50;;;9.60;99.90;;;;;;6240699;22;20020;-63
2021/11/13 01:17:31;;;;;;;23.05;11.15;;;9.70;99.90;;;;;;6241554;22;20016;-63
2021/11/13 01:19:56;;;;;;;25.23;10.88;;;9.70;99.90;;;;;;6241045;22;20085;-63
2021/11/13 01:22:22;;;;;;;23.83;10.38;;;9.80;99.90;;;;;;6240953;22;20035;-63
2021/11/13 01:24:48;;;;;;;24.75;10.73;;;9.80;99.90;;;;;;6241603;22;20466;-63
2021/11/13 01:27:14;;;;;;;21.73;10.75;;;9.80;99.90;;;;;;6240464;22;20078;-63
2021/11/13 01:29:41;;;;;;;23.92;10.95;;;9.90;99.90;;;;;;6239995;22;20012;-63
2021/11/13 01:32:07;;;;;;;35.45;10.48;;;9.80;99.90;;;;;;6238331;22;20019;-69
2021/11/13 01:34:34;;;;;;;24.98;10.95;;;9.80;99.90;;;;;;6241419;22;20059;-63
2021/11/13 01:36:59;;;;;;;27.73;10.63;;;9.80;99.90;;;;;;6239329;22;20012;-62
2021/11/13 01:39:25;;;;;;;26.73;10.50;;;9.80;99.90;;;;;;6240991;22;20449;-62
2021/11/13 01:41:54;;;;;;;25.65;10.95;;;9.80;99.90;;;;;;6241306;22;20019;-63
2021/11/13 01:44:19;;;;;;;31.83;11.23;;;9.80;99.90;;;;;;6240568;22;20027;-63
2021/11/13 01:46:45;;;;;;;25.40;10.65;;;9.80;99.90;;;;;;6241595;22;20020;-62
2021/11/13 01:49:10;;;;;;;25.30;10.55;;;9.80;99.90;;;;;;6240357;22;20008;-62
2021/11/13 01:51:36;;;;;;;25.60;10.80;;;9.90;99.90;;;;;;6239375;23;20123;-62
2021/11/13 01:54:06;;;;;;;22.25;11.10;;;9.90;99.90;;;;;;6239201;22;20040;-64
2021/11/13 01:56:34;;;;;;;26.50;11.15;;;9.90;99.90;;;;;;6238514;22;20036;-63
2021/11/13 01:59:02;;;;;;;24.23;10.27;;;9.90;99.90;;;;;;6239057;22;20009;-64
2021/11/13 02:01:28;;;;;;;22.25;10.40;;;9.90;99.90;;;;;;6239849;22;20367;-63
2021/11/13 02:03:54;;;;;;;24.98;9.80;;;10.00;99.90;;;;;;6239369;22;20042;-64
2021/11/13 02:06:21;;;;;;;24.77;10.48;;;10.00;99.90;;;;;;6240442;22;20015;-63
2021/11/13 02:08:48;;;;;;;26.67;10.88;;;10.00;99.90;;;;;;6241230;22;20023;-63
2021/11/13 02:11:17;;;;;;;23.83;10.57;;;10.00;99.90;;;;;;6239799;22;20066;-63
2021/11/13 02:13:42;;;;;;;26.42;11.07;;;10.00;99.90;;;;;;6239287;22;20019;-63
2021/11/13 02:16:09;;;;;;;30.83;12.13;;;10.00;99.90;;;;;;6238334;22;20009;-62
2021/11/13 02:18:38;;;;;;;24.25;11.65;;;10.10;99.90;;;;;;6241039;22;20008;-63
2021/11/13 02:21:05;;;;;;;26.48;10.90;;;10.10;99.90;;;;;;6240460;22;20016;-63
2021/11/13 02:23:31;;;;;;;27.27;11.52;;;10.00;99.90;;;;;;6240647;22;20517;-62
2021/11/13 02:25:56;;;;;;;21.60;9.25;;;10.10;99.90;;;;;;6240720;22;20016;-62
2021/11/13 02:28:24;;;;;;;22.23;10.00;;;10.00;99.90;;;;;;6239019;22;20500;-63
2021/11/13 02:30:52;;;;;;;26.00;11.27;;;10.00;99.90;;;;;;6237888;22;20012;-62
2021/11/13 02:33:19;;;;;;;30.73;11.65;;;10.10;99.90;;;;;;6237727;22;20004;-63
2021/11/13 02:35:46;;;;;;;26.48;10.90;;;10.10;99.90;;;;;;6237565;23;20016;-62
2021/11/13 02:38:32;;;;;;;27.98;11.52;;;10.10;99.90;;;;;;6237544;22;20194;-62
2021/11/13 02:41:00;;;;;;;21.48;10.60;;;10.10;99.90;;;;;;6237128;22;20010;-63
2021/11/13 02:43:27;;;;;;;25.25;10.55;;;10.20;99.90;;;;;;6238711;22;20016;-63
2021/11/13 02:45:55;;;;;;;25.35;11.27;;;10.20;99.90;;;;;;6237857;23;20020;-63
2021/11/13 02:48:22;;;;;;;24.27;10.75;;;10.20;99.90;;;;;;6238534;22;20430;-62
2021/11/13 02:50:48;;;;;;;27.38;11.70;;;10.30;99.90;;;;;;6239175;22;20022;-62
2021/11/13 02:53:22;;;;;;;23.00;10.88;;;10.30;99.90;;;;;;6236472;22;20020;-63
2021/11/13 02:55:49;;;;;;;24.33;10.93;;;10.30;99.90;;;;;;6239177;22;20042;-62
2021/11/13 02:58:16;;;;;;;26.05;10.73;;;10.20;99.90;;;;;;6238013;22;20414;-63
2021/11/13 03:00:42;;;;;;;28.90;10.73;;;10.20;99.90;;;;;;6239590;22;20012;-62
2021/11/13 03:03:08;;;;;;;25.35;11.25;;;10.30;99.90;;;;;;6238125;22;20466;-64
2021/11/13 03:05:36;;;;;;;25.15;10.48;;;10.30;99.90;;;;;;6238645;22;20019;-62
2021/11/13 03:08:04;;;;;;;29.63;11.38;;;10.30;99.90;;;;;;6237328;22;20012;-62
2021/11/13 03:10:33;;;;;;;31.80;12.02;;;10.30;99.90;;;;;;6237405;22;20161;-62
2021/11/13 03:13:00;;;;;;;28.05;12.13;;;10.30;99.90;;;;;;6238372;22;20012;-62
2021/11/13 03:15:26;;;;;;;26.63;10.80;;;10.30;99.90;;;;;;6238798;22;20481;-63
2021/11/13 03:17:53;;;;;;;31.42;12.30;;;10.30;99.90;;;;;;6238466;22;20451;-62
2021/11/13 03:20:26;;;;;;;25.83;11.07;;;10.30;99.90;;;;;;6237648;22;20008;-63
2021/11/13 03:22:52;;;;;;;24.75;11.65;;;10.30;99.90;;;;;;6237302;23;20023;-62
2021/11/13 03:25:25;;;;;;;29.45;12.43;;;10.40;99.90;;;;;;6237942;22;20020;-62
2021/11/13 03:27:57;;;;;;;22.77;11.52;;;10.40;99.90;;;;;;6238870;22;20450;-62
2021/11/13 03:30:23;;;;;;;28.65;12.15;;;10.40;99.90;;;;;;6238082;22;20037;-62
2021/11/13 03:32:51;;;;;;;28.35;12.82;;;10.40;99.90;;;;;;6238755;22;20450;-62
2021/11/13 03:35:19;;;;;;;30.45;12.40;;;10.50;99.90;;;;;;6237088;22;20461;-62
2021/11/13 03:37:45;;;;;;;32.58;13.48;;;10.50;99.90;;;;;;6238850;22;20103;-62
2021/11/13 03:40:13;;;;;;;35.25;12.48;;;10.50;99.90;;;;;;6237393;22;20000;-62
2021/11/13 03:42:41;;;;;;;37.25;11.65;;;10.40;99.90;;;;;;6238564;22;20008;-62
2021/11/13 03:45:08;;;;;;;27.67;11.90;;;10.50;99.90;;;;;;6238214;22;20070;-62
2021/11/13 03:47:34;;;;;;;34.88;13.43;;;10.50;99.90;;;;;;6238261;22;20462;-62
2021/11/13 03:49:59;;;;;;;28.85;11.25;;;10.50;99.90;;;;;;6238466;22;20016;-62
2021/11/13 03:52:25;;;;;;;31.90;12.07;;;10.50;99.90;;;;;;6239092;22;20465;-62
2021/11/13 03:54:50;;;;;;;38.63;11.70;;;10.50;99.90;;;;;;6239967;22;20012;-63
2021/11/13 03:57:16;;;;;;;24.95;10.60;;;10.50;99.90;;;;;;6239360;22;20079;-61
2021/11/13 03:59:42;;;;;;;28.00;11.52;;;10.50;99.90;;;;;;6239917;22;20686;-62
2021/11/13 04:02:10;;;;;;;30.10;11.40;;;10.50;99.90;;;;;;6239389;22;20505;-61
2021/11/13 04:04:38;;;;;;;31.85;10.88;;;10.40;99.90;;;;;;6240145;22;20465;-61
2021/11/13 04:07:04;;;;;;;29.42;10.73;;;10.40;99.90;;;;;;6239473;22;20016;-62
2021/11/13 04:09:29;;;;;;;31.83;11.30;;;10.40;99.90;;;;;;6240039;22;20039;-62
2021/11/13 04:11:55;;;;;;;27.13;11.23;;;10.50;99.90;;;;;;6240201;22;20038;-62
2021/11/13 04:14:20;;;;;;;26.48;12.23;;;10.40;99.90;;;;;;6238796;22;20409;-62
2021/11/13 04:16:46;;;;;;;27.52;12.60;;;10.50;99.90;;;;;;6238149;23;20703;-61
2021/11/13 04:19:12;;;;;;;28.90;11.13;;;10.50;99.90;;;;;;6239055;22;20012;-62
2021/11/13 04:21:38;;;;;;;27.63;12.20;;;10.40;99.90;;;;;;6241658;22;20011;-62
2021/11/13 04:24:05;;;;;;;30.05;12.65;;;10.50;99.90;;;;;;6241588;22;20134;-62
2021/11/13 04:26:31;;;;;;;33.92;12.93;;;10.50;99.90;;;;;;6241424;22;20438;-61
2021/11/13 04:28:57;;;;;;;34.30;11.80;;;10.40;99.90;;;;;;6241266;22;20012;-62
2021/11/13 04:31:22;;;;;;;32.08;10.80;;;10.50;99.90;;;;;;6241124;22;20008;-61
2021/11/13 04:33:48;;;;;;;28.88;11.70;;;10.50;99.90;;;;;;6241542;22;20054;-62
2021/11/13 04:36:29;;;;;;;40.05;12.70;;;10.50;99.90;;;;;;6241083;22;20016;-64
2021/11/13 04:38:54;;;;;;;24.65;10.60;;;10.60;99.90;;;;;;6242079;22;20031;-62
2021/11/13 04:41:20;;;;;;;26.35;10.57;;;10.50;99.90;;;;;;6240689;22;20000;-62
2021/11/13 04:43:46;;;;;;;20.88;8.93;;;10.60;99.90;;;;;;6241679;22;20004;-61
2021/11/13 04:46:11;;;;;;;21.63;9.65;;;10.50;99.90;;;;;;6241092;22;20342;-62
2021/11/13 04:48:37;;;;;;;19.23;7.40;;;10.50;99.90;;;;;;6241276;22;20087;-61
2021/11/13 04:51:03;;;;;;;20.35;7.85;;;10.60;99.90;;;;;;6241307;22;20007;-62
2021/11/13 04:53:28;;;;;;;17.70;7.68;;;10.60;99.90;;;;;;6241168;22;20050;-62
2021/11/13 04:55:54;;;;;;;21.60;7.22;;;10.60;99.90;;;;;;6241579;22;20092;-62
2021/11/13 04:58:20;;;;;;;15.00;6.97;;;10.60;99.90;;;;;;6240025;22;20050;-62
2021/11/13 05:00:46;;;;;;;19.13;9.05;;;10.60;99.90;;;;;;6241465;22;20446;-61
2021/11/13 05:03:12;;;;;;;18.92;8.57;;;10.70;99.90;;;;;;6240099;22;20039;-62
2021/11/13 05:05:38;;;;;;;25.42;9.07;;;10.70;99.90;;;;;;6242014;22;20039;-62
2021/11/13 05:08:03;;;;;;;29.55;8.45;;;10.70;99.90;;;;;;6240773;22;20008;-62
2021/11/13 05:10:29;;;;;;;28.92;8.48;;;10.70;99.90;;;;;;6241041;22;20450;-62
2021/11/13 05:12:55;;;;;;;23.00;8.82;;;10.60;99.90;;;;;;6241317;22;20439;-62
2021/11/13 05:15:21;;;;;;;21.20;7.43;;;10.60;99.90;;;;;;6240670;22;20008;-62
2021/11/13 05:17:47;;;;;;;23.95;7.72;;;10.60;99.90;;;;;;6241686;22;20012;-61
2021/11/13 05:20:14;;;;;;;21.13;7.82;;;10.50;99.90;;;;;;6240506;22;20342;-62
2021/11/13 05:22:43;;;;;;;20.10;8.00;;;10.60;99.90;;;;;;6241867;22;20011;-62
2021/11/13 05:25:11;;;;;;;22.15;6.68;;;10.50;99.90;;;;;;6241017;22;20043;-62
2021/11/13 05:27:37;;;;;;;22.00;6.63;;;10.60;99.90;;;;;;6241340;22;20031;-61
2021/11/13 05:30:09;;;;;;;19.88;6.53;;;10.60;99.90;;;;;;6240504;22;20049;-62
2021/11/13 05:32:35;;;;;;;14.63;5.53;;;10.60;99.90;;;;;;6239816;22;20028;-62
2021/11/13 05:35:00;;;;;;;18.00;5.00;;;10.60;99.90;;;;;;6240950;22;20019;-62
2021/11/13 05:37:26;;;;;;;17.13;5.75;;;10.50;99.90;;;;;;6240918;22;20039;-62
2021/11/13 05:39:52;;;;;;;16.45;6.63;;;10.60;99.90;;;;;;6241490;22;20446;-62
2021/11/13 05:42:17;;;;;;;19.10;7.55;;;10.60;99.90;;;;;;6240194;22;20008;-62
2021/11/13 05:44:44;;;;;;;20.52;7.38;;;10.60;99.90;;;;;;6241129;22;20085;-62
2021/11/13 05:47:10;;;;;;;18.60;7.38;;;10.60;99.90;;;;;;6240168;22;20008;-63
2021/11/13 05:49:35;;;;;;;19.05;7.15;;;10.60;99.90;;;;;;6239429;22;20016;-61
2021/11/13 05:52:01;;;;;;;23.52;9.20;;;10.60;99.90;;;;;;6238803;22;20004;-62
2021/11/13 05:54:27;;;;;;;20.88;7.72;;;10.60;99.90;;;;;;6240902;22;20019;-63
2021/11/13 05:56:53;;;;;;;19.15;7.63;;;10.60;99.90;;;;;;6241433;22;20350;-63
2021/11/13 05:59:18;;;;;;;20.80;8.05;;;10.60;99.90;;;;;;6239879;22;20065;-62
2021/11/13 06:01:44;;;;;;;24.80;8.63;;;10.60;99.90;;;;;;6240997;22;20450;-62
2021/11/13 06:04:10;;;;;;;23.38;7.50;;;10.60;99.90;;;;;;6238175;22;20008;-63
2021/11/13 06:06:36;;;;;;;27.65;8.80;;;10.60;99.90;;;;;;6241001;22;20316;-61
2021/11/13 06:09:02;;;;;;;19.33;7.70;;;10.50;99.90;;;;;;6240479;22;20012;-63
2021/11/13 06:11:28;;;;;;;25.55;9.05;;;10.60;99.90;;;;;;6240251;22;20092;-62
2021/11/13 06:13:53;;;;;;;26.58;8.40;;;10.50;99.90;;;;;;6240751;22;20342;-62
2021/11/13 06:16:19;;;;;;;25.30;8.50;;;10.60;99.90;;;;;;6240141;22;20004;-62
2021/11/13 06:18:45;;;;;;;24.30;8.23;;;10.60;99.90;;;;;;6240463;22;20008;-62
2021/11/13 06:21:11;;;;;;;19.55;8.10;;;10.50;99.90;;;;;;6239511;22;20004;-62
2021/11/13 06:23:38;;;;;;;19.45;7.47;;;10.60;99.90;;;;;;6240676;22;20339;-62
2021/11/13 06:26:05;;;;;;;19.50;8.45;;;10.60;99.90;;;;;;6240403;22;20012;-62
2021/11/13 06:28:32;;;;;;;22.48;8.63;;;10.60;99.90;;;;;;6240300;22;20012;-61
2021/11/13 06:30:58;;;;;;;21.77;8.70;;;10.60;99.90;;;;;;6239895;22;20605;-63
2021/11/13 06:33:23;;;;;;;19.50;8.20;;;10.60;99.90;;;;;;6240216;22;20007;-62
2021/11/13 06:35:49;;;;;;;20.92;9.02;;;10.50;99.90;;;;;;6240703;22;20023;-62
2021/11/13 06:38:15;;;;;;;25.00;8.55;;;10.60;99.90;;;;;;6239917;22;20009;-63
2021/11/13 06:40:41;;;;;;;23.00;9.10;;;10.50;99.90;;;;;;6238610;22;20014;-62
2021/11/13 06:43:06;;;;;;;20.05;8.02;;;10.50;99.90;;;;;;6239810;22;20032;-62
2021/11/13 06:45:32;;;;;;;19.83;8.05;;;10.60;99.90;;;;;;6239771;22;20016;-61
2021/11/13 06:47:58;;;;;;;23.50;8.25;;;10.60;99.90;;;;;;6240501;22;20008;-62
2021/11/13 06:50:24;;;;;;;18.27;8.40;;;10.60;99.90;;;;;;6240086;22;20026;-62
2021/11/13 06:52:49;;;;;;;20.08;8.25;;;10.60;99.90;;;;;;6240459;22;20507;-63
2021/11/13 06:55:15;;;;;;;28.13;8.68;;;10.60;99.90;;;;;;6239735;22;20008;-62
2021/11/13 06:57:42;;;;;;;21.27;7.57;;;10.60;99.90;;;;;;6238438;23;20338;-62
2021/11/13 07:00:11;;;;;;;29.88;8.05;;;10.60;99.90;;;;;;6240033;22;20019;-62
2021/11/13 07:02:37;;;;;;;22.67;7.65;;;10.60;99.90;;;;;;6239763;22;20460;-62
2021/11/13 07:05:05;;;;;;;16.98;7.82;;;10.60;99.90;;;;;;6240129;22;20031;-62
2021/11/13 07:07:33;;;;;;;19.25;7.40;;;10.60;99.90;;;;;;6240307;22;20019;-62
2021/11/13 07:10:08;;;;;;;33.80;7.95;;;10.60;99.90;;;;;;6238839;22;20625;-62
2021/11/13 07:12:33;;;;;;;20.08;7.57;;;10.70;99.90;;;;;;6239227;22;20008;-62
2021/11/13 07:14:59;;;;;;;19.83;6.45;;;10.60;99.90;;;;;;6239791;22;20343;-62
2021/11/13 07:17:25;;;;;;;17.75;6.22;;;10.60;99.90;;;;;;6237690;22;20399;-61
2021/11/13 07:19:51;;;;;;;22.08;6.90;;;10.60;99.90;;;;;;6240388;22;20019;-63
2021/11/13 07:22:18;;;;;;;17.98;6.55;;;10.60;99.90;;;;;;6238777;22;20004;-62
2021/11/13 07:24:44;;;;;;;24.70;6.85;;;10.70;99.90;;;;;;6239849;22;20008;-61
2021/11/13 07:27:11;;;;;;;18.23;7.20;;;10.70;99.90;;;;;;6239442;22;20008;-64
2021/11/13 07:29:44;;;;;;;23.50;7.05;;;10.70;99.90;;;;;;6240397;22;20019;-62
2021/11/13 07:32:12;;;;;;;13.75;5.70;;;10.70;99.90;;;;;;6239075;22;20012;-64
2021/11/13 07:34:38;;;;;;;15.82;5.78;;;10.70;99.90;;;;;;6240276;22;20012;-61
2021/11/13 07:37:04;;;;;;;13.07;5.47;;;10.70;99.90;;;;;;6239998;22;20016;-63
2021/11/13 07:39:30;;;;;;;14.52;6.03;;;10.70;99.90;;;;;;6239775;22;20016;-61
2021/11/13 07:41:56;;;;;;;16.65;5.00;;;10.80;99.90;;;;;;6240113;22;20065;-61
2021/11/13 07:44:22;;;;;;;17.65;5.55;;;10.80;99.90;;;;;;6238948;23;20507;-61
2021/11/13 07:46:48;;;;;;;16.45;5.28;;;10.80;99.90;;;;;;6239907;23;20008;-61
2021/11/13 07:49:14;;;;;;;12.05;4.50;;;10.80;99.90;;;;;;6212437;22;20035;-61
2021/11/13 07:51:40;;;;;;;12.77;4.35;;;10.90;99.90;;;;;;6240450;23;20039;-62
2021/11/13 07:54:06;;;;;;;12.68;4.35;;;10.90;99.90;;;;;;6239288;23;20425;-61
2021/11/13 07:56:31;;;;;;;12.32;4.35;;;11.00;99.90;;;;;;6241043;23;20004;-62
2021/11/13 07:58:58;;;;;;;15.98;5.10;;;11.00;99.90;;;;;;6215106;23;20087;-62
2021/11/13 08:01:23;;;;;;;9.48;3.63;;;11.00;99.90;;;;;;6240599;22;20011;-61
2021/11/13 08:03:49;;;;;;;17.70;5.32;;;11.00;99.90;;;;;;6241932;23;20004;-61
2021/11/13 08:06:15;;;;;;;11.65;3.92;;;11.10;99.90;;;;;;6240611;23;20004;-61
2021/11/13 08:08:40;;;;;;;9.02;3.72;;;11.10;99.90;;;;;;6241846;23;20062;-61
2021/11/13 08:11:06;;;;;;;19.88;4.25;;;11.20;99.90;;;;;;6241355;22;20004;-61
2021/11/13 08:13:33;;;;;;;11.70;3.40;;;11.20;99.90;;;;;;6241085;23;20006;-61
2021/11/13 08:15:59;;;;;;;10.40;3.92;;;11.30;99.90;;;;;;6241362;23;20011;-62
2021/11/13 08:18:25;;;;;;;9.55;3.53;;;11.20;99.90;;;;;;6214233;23;20624;-61
2021/11/13 08:20:51;;;;;;;11.02;3.53;;;11.30;99.90;;;;;;6241828;22;20019;-61
2021/11/13 08:23:17;;;;;;;11.32;3.50;;;11.30;99.90;;;;;;6240011;23;20825;-61
2021/11/13 08:25:45;;;;;;;14.80;4.40;;;11.30;99.90;;;;;;6241794;23;20048;-61
2021/11/13 08:28:12;;;;;;;6.85;3.42;;;11.30;99.90;;;;;;6240494;23;20011;-64
2021/11/13 08:30:39;;;;;;;10.57;4.10;;;11.30;99.90;;;;;;6213462;23;20005;-61
2021/11/13 08:33:08;;;;;;;16.25;3.78;;;11.30;99.90;;;;;;6239510;23;20008;-62
2021/11/13 08:35:36;;;;;;;11.90;4.20;;;11.30;99.90;;;;;;6239951;23;20431;-61
2021/11/13 08:38:02;;;;;;;10.77;3.53;;;11.30;99.90;;;;;;6239817;23;20008;-61
2021/11/13 08:40:28;;;;;;;9.77;3.90;;;11.30;99.90;;;;;;6238901;22;20021;-61
2021/11/13 08:42:54;;;;;;;15.75;4.10;;;11.30;99.90;;;;;;6239678;23;20030;-62
2021/11/13 08:45:20;;;;;;;16.65;3.80;;;11.30;99.90;;;;;;6209281;23;20004;-62
2021/11/13 08:47:46;;;;;;;7.95;3.60;;;11.30;99.90;;;;;;6238571;23;20009;-62
2021/11/13 08:50:18;;;;;;;10.52;5.00;;;11.30;99.90;;;;;;6210204;23;20016;-61
2021/11/13 08:52:46;;;;;;;16.30;3.90;;;11.30;99.90;;;;;;6238356;23;20020;-61
2021/11/13 08:55:12;;;;;;;11.27;3.60;;;11.30;99.90;;;;;;6237342;23;20016;-62
2021/11/13 08:57:40;;;;;;;15.05;4.43;;;11.30;99.90;;;;;;6238213;23;20016;-61
2021/11/13 09:00:06;;;;;;;10.82;3.15;;;11.20;99.90;;;;;;6238479;22;20063;-61
2021/11/13 09:02:32;;;;;;;11.90;3.15;;;11.30;99.90;;;;;;6238299;23;20091;-61
2021/11/13 09:04:58;;;;;;;15.13;3.08;;;11.20;99.90;;;;;;6238177;23;20198;-63
2021/11/13 09:07:26;;;;;;;16.10;3.60;;;11.20;99.90;;;;;;6237014;23;20004;-64
2021/11/13 09:09:51;;;;;;;11.80;4.03;;;11.30;99.90;;;;;;6237671;22;20015;-61
2021/11/13 09:12:25;;;;;;;7.40;3.20;;;11.40;99.90;;;;;;6237586;23;20016;-62
2021/11/13 09:14:52;;;;;;;9.38;3.40;;;11.40;99.90;;;;;;6239234;23;20083;-61
2021/11/13 09:17:20;;;;;;;8.68;3.20;;;11.50;99.90;;;;;;6209849;23;20016;-62
2021/11/13 09:19:46;;;;;;;11.77;3.42;;;11.60;99.90;;;;;;6238145;22;20015;-61
2021/11/13 09:22:12;;;;;;;9.10;2.83;;;11.70;99.90;;;;;;6210136;23;20015;-62
2021/11/13 09:24:37;;;;;;;7.18;3.10;;;11.90;99.90;;;;;;6239482;23;20004;-61
2021/11/13 09:27:03;;;;;;;13.10;3.08;;;12.00;99.90;;;;;;6213815;23;20008;-63
2021/11/13 09:29:29;;;;;;;6.93;2.50;;;12.10;99.90;;;;;;6235781;22;20091;-61
2021/11/13 09:31:55;;;;;;;10.30;3.08;;;12.20;99.90;;;;;;6238240;23;20859;-60
2021/11/13 09:34:21;;;;;;;7.97;2.08;;;12.20;99.90;;;;;;6237214;23;20012;-61
2021/11/13 09:36:47;;;;;;;7.85;2.45;;;12.20;99.90;;;;;;6238950;23;20008;-62
2021/11/13 09:39:14;;;;;;;12.05;2.40;;;12.20;99.90;;;;;;6237221;22;20015;-61
2021/11/13 09:41:40;;;;;;;8.30;2.22;;;12.20;99.90;;;;;;6237811;23;20016;-61
2021/11/13 09:44:07;;;;;;;7.18;2.03;;;12.20;99.90;;;;;;6209881;23;20004;-63
2021/11/13 09:46:34;;;;;;;5.70;1.60;;;12.20;99.90;;;;;;6211806;23;20011;-61
2021/11/13 09:49:00;;;;;;;6.47;2.25;;;12.10;99.90;;;;;;6238723;23;20012;-60
2021/11/13 09:51:27;;;;;;;10.88;1.88;;;12.00;99.90;;;;;;6212555;23;20016;-61
2021/11/13 09:53:53;;;;;;;7.43;2.10;;;12.00;99.90;;;;;;6239691;23;20042;-61
2021/11/13 09:56:19;;;;;;;10.30;2.53;;;12.00;99.90;;;;;;6238226;23;20042;-61
2021/11/13 09:58:45;;;;;;;9.25;2.30;;;12.20;99.90;;;;;;6240783;23;20005;-61
2021/11/13 10:01:12;;;;;;;8.50;2.22;;;12.20;99.90;;;;;;6237186;22;20004;-62
2021/11/13 10:03:38;;;;;;;5.63;2.33;;;12.20;99.90;;;;;;6238634;23;20108;-61
2021/11/13 10:06:09;;;;;;;7.93;2.42;;;12.30;99.90;;;;;;6210942;23;20016;-61
2021/11/13 10:08:35;;;;;;;5.45;2.38;;;12.40;99.90;;;;;;6238754;23;20000;-61
2021/11/13 10:11:08;;;;;;;10.10;3.33;;;12.50;99.90;;;;;;6237906;22;20008;-60
2021/11/13 10:13:43;;;;;;;10.88;2.17;;;12.50;99.90;;;;;;6237464;23;20008;-61
2021/11/13 10:16:14;;;;;;;7.35;2.20;;;12.60;99.90;;;;;;6236394;23;20035;-62
2021/11/13 10:18:46;;;;;;;11.77;2.00;;;12.80;99.90;;;;;;6210787;23;20007;-61
2021/11/13 10:21:17;;;;;;;7.22;2.22;;;12.80;99.90;;;;;;6210259;23;20016;-61
2021/11/13 10:23:54;;;;;;;;;;;12.80;99.90;;;;;;6239060;23;20077;-61
2021/11/13 10:26:20;;;;;;;6.40;1.70;;;12.80;99.90;;;;;;6236580;23;19911;-61
2021/11/13 10:28:56;;;;;;;5.47;2.10;;;12.90;99.90;;;;;;6238569;23;20024;-60
2021/11/13 10:31:37;;;;;;;7.85;1.90;;;12.90;99.90;;;;;;6209855;23;20502;-61
2021/11/13 10:34:10;;;;;;;7.95;2.25;;;12.90;99.90;;;;;;6211196;23;20030;-61
2021/11/13 10:36:39;;;;;;;8.55;2.10;;;12.90;99.90;;;;;;6237334;23;20015;-61
2021/11/13 10:39:10;;;;;;;8.67;2.27;;;12.90;99.90;;;;;;6237476;23;20091;-61
2021/11/13 10:41:50;;;;;;;5.88;1.92;;;13.00;99.90;;;;;;6236616;22;20334;-62
2021/11/13 10:44:32;;;;;;;5.53;2.45;;;12.90;99.90;;;;;;6237351;23;20004;-62
2021/11/13 10:46:59;;;;;;;10.85;2.03;;;12.90;99.90;;;;;;6211068;23;20012;-61
2021/11/13 10:49:25;;;;;;;7.57;2.40;;;13.00;99.90;;;;;;6237858;22;20023;-61
2021/11/13 10:51:58;;;;;;;4.22;1.50;;;13.00;99.90;;;;;;6237798;23;20438;-62
2021/11/13 10:54:24;;;;;;;9.75;2.30;;;12.90;99.90;;;;;;6234939;22;20061;-62
2021/11/13 10:56:53;;;;;;;5.05;2.10;;;13.00;99.90;;;;;;6239411;22;20027;-61
2021/11/13 10:59:25;;;;;;;6.38;1.80;;;13.00;99.90;;;;;;6238396;22;20020;-62
2021/11/13 11:01:51;;;;;;;8.55;2.33;;;13.00;99.90;;;;;;6240221;22;20012;-61
2021/11/13 11:04:21;;;;;;;5.88;1.70;;;13.00;99.90;;;;;;6239238;22;20000;-61
2021/11/13 11:07:01;;;;;;;2.22;1.00;;;13.00;99.90;;;;;;6240723;22;20430;-61
2021/11/13 11:09:28;;;;;;;;;;;12.90;99.90;;;;;;6240351;22;20012;-61
2021/11/13 11:12:06;;;;;;;11.48;2.03;;;12.70;99.90;;;;;;6240176;22;19935;-60
2021/11/13 11:14:33;;;;;;;3.65;1.17;;;12.70;99.90;;;;;;6239530;22;20038;-61
2021/11/13 11:17:05;;;;;;;6.05;1.40;;;12.60;99.90;;;;;;6238068;22;20007;-64
2021/11/13 11:19:33;;;;;;;3.95;1.35;;;12.60;99.90;;;;;;6239896;22;20038;-62
2021/11/13 11:22:21;;;;;;;6.10;1.08;;;12.60;99.90;;;;;;6237749;22;20015;-64
2021/11/13 11:24:57;;;;;;;5.85;1.13;;;12.50;99.90;;;;;;6237973;23;20005;-61
2021/11/13 11:27:35;;;;;;;3.25;1.38;;;12.60;99.90;;;;;;6239636;22;20012;-61
2021/11/13 11:30:05;;;;;;;3.42;1.33;;;12.70;99.90;;;;;;6239355;22;20012;-61
2021/11/13 11:32:37;;;;;;;8.68;1.77;;;12.80;99.90;;;;;;6239680;22;22698;-61
2021/11/13 11:35:07;;;;;;;4.93;1.27;;;12.90;99.90;;;;;;6239916;22;20446;-60
2021/11/13 11:37:34;;;;;;;;;;;12.90;99.90;;;;;;6240427;22;20000;-61
2021/11/13 11:40:10;;;;;;;4.30;1.08;;;13.00;99.90;;;;;;6239692;22;19907;-61
2021/11/13 11:42:37;;;;;;;6.78;1.48;;;13.00;99.90;;;;;;6239935;22;20735;-61
2021/11/13 11:45:05;;;;;;;4.50;1.23;;;13.00;99.90;;;;;;6237761;22;20331;-61
2021/11/13 11:47:33;;;;;;;6.78;1.73;;;13.00;99.90;;;;;;6237807;22;20131;-60
2021/11/13 11:50:03;;;;;;;5.65;1.33;;;12.90;99.90;;;;;;6239353;22;20446;-61
2021/11/13 11:52:30;;;;;;;6.40;1.73;;;13.00;99.90;;;;;;6238326;22;20043;-61
2021/11/13 11:54:57;;;;;;;8.25;1.52;;;13.00;99.90;;;;;;6240272;22;20019;-61
2021/11/13 11:57:26;;;;;;;3.85;1.70;;;13.00;99.90;;;;;;6239112;22;20008;-61
2021/11/13 11:59:57;;;;;;;7.72;1.90;;;12.90;99.90;;;;;;6240114;22;20009;-61
2021/11/13 12:02:33;;;;;;;4.68;2.10;;;12.80;99.90;;;;;;6236586;22;20004;-61
2021/11/13 12:05:06;;;;;;;8.65;2.05;;;12.70;99.90;;;;;;6237385;22;20450;-63
2021/11/13 12:07:33;;;;;;;3.83;1.52;;;12.70;99.90;;;;;;6236133;22;20079;-61
2021/11/13 12:10:01;;;;;;;5.97;2.10;;;12.60;99.90;;;;;;6236974;22;20012;-61
2021/11/13 12:12:27;;;;;;;5.20;1.50;;;12.50;99.90;;;;;;6235565;22;20086;-62
2021/11/13 12:14:55;;;;;;;5.88;1.92;;;12.40;99.90;;;;;;6235917;22;20081;-61
2021/11/13 12:17:34;;;;;;;7.03;2.47;;;12.30;99.90;;;;;;6234871;22;20012;-62
2021/11/13 12:20:08;;;;;;;4.78;2.30;;;12.30;99.90;;;;;;6236463;22;20039;-60
2021/11/13 12:22:43;;;;;;;5.35;2.50;;;12.30;99.90;;;;;;6236769;22;20032;-62
2021/11/13 12:25:15;;;;;;;8.98;2.83;;;12.40;99.90;;;;;;6236327;22;20031;-61
2021/11/13 12:27:41;;;;;;;7.45;2.90;;;12.50;99.90;;;;;;6234289;22;20081;-62
2021/11/13 12:30:08;;;;;;;4.22;2.40;;;12.60;99.90;;;;;;6236007;22;20008;-62
2021/11/13 12:32:38;;;;;;;8.88;2.75;;;12.50;99.90;;;;;;6236011;22;20039;-61
2021/11/13 12:35:04;;;;;;;5.18;2.38;;;12.60;99.90;;;;;;6236272;22;20091;-61
2021/11/13 12:37:30;;;;;;;6.57;2.15;;;12.50;99.90;;;;;;6235973;22;20696;-61
2021/11/13 12:39:57;;;;;;;5.30;2.28;;;12.50;99.90;;;;;;6238149;22;20091;-61